Time,TemperatureF,DewpointF,PressureIn,WindDirection,WindDirectionDegrees,WindSpeedMPH,WindSpeedGustMPH,Humidity,HourlyPrecipIn,Conditions,Clouds,dailyrainin,SoftwareType,DateUTC
2013-06-03 00:00:00,62.9,61.2,29.89,NNW,340,0.0,1.0,94,0.00,,BKN055,0.00,VWS V14.00,2013-06-03 04:00:00,
2013-06-03 00:01:00,62.9,61.2,29.89,NNW,340,0.0,1.0,94,0.00,,BKN055,0.00,VWS V14.00,2013-06-03 04:01:00,
2013-06-03 00:10:00,63.0,61.2,29.90,NNW,334,0.0,2.0,94,0.00,,BKN055,0.00,VWS V14.00,2013-06-03 04:10:00,
2013-06-03 00:11:00,63.0,61.2,29.90,NNW,334,0.0,2.0,94,0.00,,BKN055,0.00,VWS V14.00,2013-06-03 04:11:00,
2013-06-03 00:20:00,63.4,61.7,29.90,NNE,31,0.0,5.0,94,0.00,,BKN055,0.00,VWS V14.00,2013-06-03 04:20:00,
2013-06-03 00:21:00,63.4,61.7,29.90,NNE,31,0.0,5.0,94,0.00,,BKN055,0.00,VWS V14.00,2013-06-03 04:21:00,
2013-06-03 00:30:00,63.7,61.6,29.90,NNE,30,0.0,3.0,93,0.00,,BKN055,0.00,VWS V14.00,2013-06-03 04:30:00,
2013-06-03 00:31:00,63.7,61.6,29.90,NNE,30,0.0,3.0,93,0.00,,BKN055,0.00,VWS V14.00,2013-06-03 04:31:00,
2013-06-03 00:40:00,63.8,61.7,29.90,NNE,30,0.0,1.0,93,0.00,,BKN055,0.00,VWS V14.00,2013-06-03 04:40:00,
2013-06-03 00:41:00,63.8,61.7,29.90,NNE,30,0.0,1.0,93,0.00,,BKN055,0.00,VWS V14.00,2013-06-03 04:41:00,
2013-06-03 00:50:00,64.2,61.5,29.90,NE,49,0.0,3.0,91,0.00,,BKN055,0.00,VWS V14.00,2013-06-03 04:50:00,
2013-06-03 00:51:00,64.2,61.5,29.90,NE,49,0.0,3.0,91,0.00,,BKN055,0.00,VWS V14.00,2013-06-03 04:51:00,
2013-06-03 01:00:00,64.6,61.6,29.90,NNW,344,0.0,4.0,90,0.00,,BKN055,0.00,VWS V14.00,2013-06-03 05:00:00,
2013-06-03 01:01:00,64.6,61.6,29.90,NNW,344,0.0,4.0,90,0.00,,BKN055,0.00,VWS V14.00,2013-06-03 05:01:00,
2013-06-03 01:10:00,64.8,61.5,29.90,North,355,0.0,4.0,89,0.00,,BKN055,0.00,VWS V14.00,2013-06-03 05:10:00,
2013-06-03 01:11:00,64.8,61.5,29.90,North,355,0.0,4.0,89,0.00,,BKN055,0.00,VWS V14.00,2013-06-03 05:11:00,
2013-06-03 01:20:00,64.8,61.8,29.91,North,5,0.0,0.0,90,0.00,,BKN055,0.00,VWS V14.00,2013-06-03 05:20:00,
2013-06-03 01:21:00,64.8,61.8,29.91,North,5,0.0,0.0,90,0.00,,BKN055,0.00,VWS V14.00,2013-06-03 05:21:00,
2013-06-03 01:30:00,64.5,61.2,29.91,North,5,0.0,2.0,89,0.00,,BKN055,0.00,VWS V14.00,2013-06-03 05:30:00,
2013-06-03 01:31:00,64.5,61.2,29.91,North,5,0.0,2.0,89,0.00,,BKN055,0.00,VWS V14.00,2013-06-03 05:31:00,
2013-06-03 01:40:00,64.3,61.0,29.90,North,355,0.0,3.0,89,0.00,,BKN055,0.00,VWS V14.00,2013-06-03 05:40:00,
2013-06-03 01:41:00,64.3,61.0,29.90,North,355,0.0,3.0,89,0.00,,BKN055,0.00,VWS V14.00,2013-06-03 05:41:00,
2013-06-03 01:50:00,64.2,61.2,29.90,North,360,0.0,1.0,90,0.00,,BKN055,0.00,VWS V14.00,2013-06-03 05:50:00,
2013-06-03 01:51:00,64.2,61.2,29.90,North,360,0.0,1.0,90,0.00,,BKN055,0.00,VWS V14.00,2013-06-03 05:51:00,
2013-06-03 02:00:00,63.9,60.6,29.90,NNW,342,0.0,3.0,89,0.00,,BKN055,0.00,VWS V14.00,2013-06-03 06:00:00,
2013-06-03 02:01:00,63.9,60.6,29.90,NNW,342,0.0,3.0,89,0.00,,BKN055,0.00,VWS V14.00,2013-06-03 06:01:00,
2013-06-03 02:10:00,63.7,60.1,29.91,North,349,0.0,4.0,88,0.00,,BKN055,0.00,VWS V14.00,2013-06-03 06:10:00,
2013-06-03 02:11:00,63.7,60.1,29.91,North,349,0.0,4.0,88,0.00,,BKN055,0.00,VWS V14.00,2013-06-03 06:11:00,
2013-06-03 02:20:00,63.5,59.9,29.91,NW,325,0.0,5.0,88,0.00,,BKN055,0.00,VWS V14.00,2013-06-03 06:20:00,
2013-06-03 02:21:00,63.5,59.9,29.91,NW,325,0.0,5.0,88,0.00,,BKN055,0.00,VWS V14.00,2013-06-03 06:21:00,
2013-06-03 02:30:00,63.5,59.6,29.91,NW,316,0.0,4.0,87,0.00,,BKN055,0.00,VWS V14.00,2013-06-03 06:30:00,
2013-06-03 02:31:00,63.5,59.6,29.91,NW,316,0.0,4.0,87,0.00,,BKN055,0.00,VWS V14.00,2013-06-03 06:31:00,
2013-06-03 02:40:00,63.4,59.5,29.91,North,360,0.0,3.0,87,0.00,,BKN055,0.00,VWS V14.00,2013-06-03 06:40:00,
2013-06-03 02:41:00,63.4,59.5,29.91,North,360,0.0,3.0,87,0.00,,BKN055,0.00,VWS V14.00,2013-06-03 06:41:00,
2013-06-03 02:50:00,63.2,59.6,29.92,North,355,0.0,3.0,88,0.00,,BKN055,0.00,VWS V14.00,2013-06-03 06:50:00,
2013-06-03 02:51:00,63.2,59.6,29.92,North,355,0.0,3.0,88,0.00,,BKN055,0.00,VWS V14.00,2013-06-03 06:51:00,
2013-06-03 03:00:00,63.1,59.5,29.92,NNW,329,0.0,2.0,88,0.00,,BKN055,0.00,VWS V14.00,2013-06-03 07:00:00,
2013-06-03 03:01:00,63.1,59.5,29.92,NNW,329,0.0,2.0,88,0.00,,BKN055,0.00,VWS V14.00,2013-06-03 07:01:00,
2013-06-03 03:10:00,63.0,59.4,29.92,NNE,15,0.0,3.0,88,0.00,,BKN055,0.00,VWS V14.00,2013-06-03 07:10:00,
2013-06-03 03:11:00,63.0,59.4,29.92,NNE,15,0.0,3.0,88,0.00,,BKN055,0.00,VWS V14.00,2013-06-03 07:11:00,
2013-06-03 03:20:00,62.9,59.3,29.92,NNW,334,1.0,4.0,88,0.00,,BKN055,0.00,VWS V14.00,2013-06-03 07:20:00,
2013-06-03 03:21:00,62.9,59.3,29.92,NNW,334,1.0,4.0,88,0.00,,BKN055,0.00,VWS V14.00,2013-06-03 07:21:00,
2013-06-03 03:30:00,62.9,59.6,29.92,NNE,24,0.0,2.0,89,0.00,,BKN055,0.00,VWS V14.00,2013-06-03 07:30:00,
2013-06-03 03:31:00,62.9,59.6,29.92,NNE,24,0.0,2.0,89,0.00,,BKN055,0.00,VWS V14.00,2013-06-03 07:31:00,
2013-06-03 03:40:00,62.8,59.5,29.92,NNE,24,0.0,0.0,89,0.00,,BKN055,0.00,VWS V14.00,2013-06-03 07:40:00,
2013-06-03 03:41:00,62.8,59.5,29.92,NNE,24,0.0,0.0,89,0.00,,BKN055,0.00,VWS V14.00,2013-06-03 07:41:00,
2013-06-03 03:50:00,62.6,59.0,29.92,NNE,15,0.0,3.0,88,0.00,,BKN055,0.00,VWS V14.00,2013-06-03 07:50:00,
2013-06-03 03:51:00,62.6,59.0,29.92,NNE,15,0.0,3.0,88,0.00,,BKN055,0.00,VWS V14.00,2013-06-03 07:51:00,
2013-06-03 04:00:00,62.4,58.8,29.92,North,360,0.0,3.0,88,0.00,,BKN055,0.00,VWS V14.00,2013-06-03 08:00:00,
2013-06-03 04:01:00,62.4,58.8,29.92,North,360,0.0,3.0,88,0.00,,BKN055,0.00,VWS V14.00,2013-06-03 08:01:00,
2013-06-03 04:10:00,62.2,58.6,29.92,North,355,0.0,3.0,88,0.00,,BKN055,0.00,VWS V14.00,2013-06-03 08:10:00,
2013-06-03 04:11:00,62.2,58.6,29.92,North,355,0.0,3.0,88,0.00,,BKN055,0.00,VWS V14.00,2013-06-03 08:11:00,
2013-06-03 04:20:00,62.0,58.1,29.92,North,355,1.0,5.0,87,0.00,,BKN055,0.00,VWS V14.00,2013-06-03 08:20:00,
2013-06-03 04:21:00,62.0,58.1,29.92,North,355,1.0,5.0,87,0.00,,BKN055,0.00,VWS V14.00,2013-06-03 08:21:00,
2013-06-03 04:30:00,61.8,57.9,29.92,NNW,337,0.0,6.0,87,0.00,,BKN055,0.00,VWS V14.00,2013-06-03 08:30:00,
2013-06-03 04:31:00,61.8,57.9,29.92,NNW,337,0.0,6.0,87,0.00,,BKN055,0.00,VWS V14.00,2013-06-03 08:31:00,
2013-06-03 04:40:00,61.8,58.2,29.93,NNW,345,0.0,1.0,88,0.00,,BKN055,0.00,VWS V14.00,2013-06-03 08:40:00,
2013-06-03 04:41:00,61.8,58.2,29.93,NNW,345,0.0,1.0,88,0.00,,BKN055,0.00,VWS V14.00,2013-06-03 08:41:00,
2013-06-03 04:50:00,61.6,58.0,29.92,NNW,345,0.0,0.0,88,0.00,,BKN055,0.00,VWS V14.00,2013-06-03 08:50:00,
2013-06-03 04:51:00,61.6,58.0,29.92,NNW,345,0.0,0.0,88,0.00,,BKN055,0.00,VWS V14.00,2013-06-03 08:51:00,
2013-06-03 05:00:00,61.5,57.9,29.93,NNE,23,2.0,5.0,88,0.00,,BKN055,0.00,VWS V14.00,2013-06-03 09:00:00,
2013-06-03 05:01:00,61.5,57.9,29.93,NNE,23,2.0,5.0,88,0.00,,BKN055,0.00,VWS V14.00,2013-06-03 09:01:00,
2013-06-03 05:10:00,61.4,57.8,29.93,NE,36,0.0,6.0,88,0.00,,BKN055,0.00,VWS V14.00,2013-06-03 09:10:00,
2013-06-03 05:11:00,61.4,57.8,29.93,NE,36,0.0,6.0,88,0.00,,BKN055,0.00,VWS V14.00,2013-06-03 09:11:00,
2013-06-03 05:20:00,61.3,57.7,29.93,North,355,0.0,6.0,88,0.00,,BKN055,0.00,VWS V14.00,2013-06-03 09:20:00,
2013-06-03 05:21:00,61.3,57.7,29.93,North,355,0.0,6.0,88,0.00,,BKN055,0.00,VWS V14.00,2013-06-03 09:21:00,
2013-06-03 05:30:00,61.2,57.6,29.93,NNE,28,0.0,3.0,88,0.00,,BKN055,0.00,VWS V14.00,2013-06-03 09:30:00,
2013-06-03 05:31:00,61.2,57.6,29.93,NNE,28,0.0,3.0,88,0.00,,BKN055,0.00,VWS V14.00,2013-06-03 09:31:00,
2013-06-03 05:40:00,61.1,57.8,29.93,North,360,2.0,4.0,89,0.00,,BKN055,0.00,VWS V14.00,2013-06-03 09:40:00,
2013-06-03 05:41:00,61.1,57.8,29.93,North,360,2.0,4.0,89,0.00,,BKN055,0.00,VWS V14.00,2013-06-03 09:41:00,
2013-06-03 05:50:00,60.9,57.6,29.94,North,355,0.0,3.0,89,0.00,,BKN055,0.00,VWS V14.00,2013-06-03 09:50:00,
2013-06-03 05:51:00,60.9,57.6,29.94,North,355,0.0,3.0,89,0.00,,BKN055,0.00,VWS V14.00,2013-06-03 09:51:00,
2013-06-03 06:00:00,60.8,57.2,29.94,North,5,0.0,2.0,88,0.00,,BKN055,0.00,VWS V14.00,2013-06-03 10:00:00,
2013-06-03 06:01:00,60.8,57.2,29.94,North,5,0.0,2.0,88,0.00,,BKN055,0.00,VWS V14.00,2013-06-03 10:01:00,
2013-06-03 06:10:00,60.4,56.2,29.95,NNE,20,1.0,6.0,86,0.00,,BKN055,0.00,VWS V14.00,2013-06-03 10:10:00,
2013-06-03 06:11:00,60.4,56.2,29.95,NNE,20,1.0,6.0,86,0.00,,BKN055,0.00,VWS V14.00,2013-06-03 10:11:00,
2013-06-03 06:20:00,59.9,54.7,29.95,North,360,0.0,9.0,83,0.00,,BKN055,0.00,VWS V14.00,2013-06-03 10:20:00,
2013-06-03 06:21:00,59.9,54.7,29.95,North,360,0.0,9.0,83,0.00,,BKN055,0.00,VWS V14.00,2013-06-03 10:21:00,
2013-06-03 06:30:00,59.4,54.2,29.95,North,5,5.0,7.0,83,0.00,,BKN055,0.00,VWS V14.00,2013-06-03 10:30:00,
2013-06-03 06:31:00,59.4,54.2,29.95,North,5,5.0,7.0,83,0.00,,BKN055,0.00,VWS V14.00,2013-06-03 10:31:00,
2013-06-03 06:40:00,59.0,53.8,29.96,NNE,15,1.0,7.0,83,0.00,,BKN055,0.00,VWS V14.00,2013-06-03 10:40:00,
2013-06-03 06:41:00,59.0,53.8,29.96,NNE,15,1.0,7.0,83,0.00,,BKN055,0.00,VWS V14.00,2013-06-03 10:41:00,
2013-06-03 06:50:00,58.6,53.8,29.96,North,9,0.0,5.0,84,0.00,,BKN055,0.00,VWS V14.00,2013-06-03 10:50:00,
2013-06-03 06:51:00,58.6,53.8,29.96,North,9,0.0,5.0,84,0.00,,BKN055,0.00,VWS V14.00,2013-06-03 10:51:00,
2013-06-03 07:00:00,58.4,53.9,29.96,WNW,296,0.0,6.0,85,0.00,,BKN055,0.00,VWS V14.00,2013-06-03 11:00:00,
2013-06-03 07:01:00,58.4,53.9,29.96,WNW,296,0.0,6.0,85,0.00,,BKN055,0.00,VWS V14.00,2013-06-03 11:01:00,
2013-06-03 07:10:00,58.4,54.2,29.96,North,349,1.0,4.0,86,0.00,,BKN055,0.00,VWS V14.00,2013-06-03 11:10:00,
2013-06-03 07:11:00,58.4,54.2,29.96,North,349,1.0,4.0,86,0.00,,BKN055,0.00,VWS V14.00,2013-06-03 11:11:00,
2013-06-03 07:20:00,58.5,54.0,29.97,North,350,0.0,7.0,85,0.00,,BKN055,0.00,VWS V14.00,2013-06-03 11:20:00,
2013-06-03 07:21:00,58.5,54.0,29.97,North,350,0.0,7.0,85,0.00,,BKN055,0.00,VWS V14.00,2013-06-03 11:21:00,
2013-06-03 07:31:00,59.0,54.5,29.97,NNW,343,3.0,3.0,85,0.00,,BKN055,0.00,VWS V14.00,2013-06-03 11:31:00,
2013-06-03 07:40:00,59.0,53.8,29.97,NNW,342,4.0,9.0,83,0.00,,BKN055,0.00,VWS V14.00,2013-06-03 11:40:00,
2013-06-03 07:41:00,59.0,53.8,29.97,NNW,342,4.0,9.0,83,0.00,,BKN055,0.00,VWS V14.00,2013-06-03 11:41:00,
2013-06-03 07:50:00,58.5,53.4,29.97,ENE,67,0.0,7.0,83,0.00,,BKN055,0.00,VWS V14.00,2013-06-03 11:50:00,
2013-06-03 07:51:00,58.5,53.4,29.97,ENE,67,0.0,7.0,83,0.00,,BKN055,0.00,VWS V14.00,2013-06-03 11:51:00,
2013-06-03 08:00:00,58.7,54.2,29.98,NE,41,0.0,3.0,85,0.00,,BKN055,0.00,VWS V14.00,2013-06-03 12:00:00,
2013-06-03 08:01:00,58.7,54.2,29.98,NE,41,0.0,3.0,85,0.00,,BKN055,0.00,VWS V14.00,2013-06-03 12:01:00,
2013-06-03 08:10:00,59.5,55.0,29.98,North,355,0.0,0.0,85,0.00,,BKN055,0.00,VWS V14.00,2013-06-03 12:10:00,
2013-06-03 08:11:00,59.5,55.0,29.98,North,355,0.0,0.0,85,0.00,,BKN055,0.00,VWS V14.00,2013-06-03 12:11:00,
2013-06-03 08:20:00,60.3,54.8,29.98,NNE,17,0.0,4.0,82,0.00,,BKN055,0.00,VWS V14.00,2013-06-03 12:20:00,
2013-06-03 08:21:00,60.3,54.8,29.98,NNE,17,0.0,4.0,82,0.00,,BKN055,0.00,VWS V14.00,2013-06-03 12:21:00,
2013-06-03 08:30:00,60.7,55.2,29.98,NNW,344,3.0,4.0,82,0.00,,BKN055,0.00,VWS V14.00,2013-06-03 12:30:00,
2013-06-03 08:31:00,60.7,55.2,29.98,NNW,344,3.0,4.0,82,0.00,,BKN055,0.00,VWS V14.00,2013-06-03 12:31:00,
2013-06-03 08:40:00,60.2,54.7,29.98,NNW,333,0.0,4.0,82,0.00,,BKN055,0.00,VWS V14.00,2013-06-03 12:40:00,
2013-06-03 08:41:00,60.2,54.7,29.98,NNW,333,0.0,4.0,82,0.00,,BKN055,0.00,VWS V14.00,2013-06-03 12:41:00,
2013-06-03 08:50:00,60.6,55.1,29.98,NE,48,0.0,3.0,82,0.00,,BKN055,0.00,VWS V14.00,2013-06-03 12:50:00,
2013-06-03 08:51:00,60.6,55.1,29.98,NE,48,0.0,3.0,82,0.00,,BKN055,0.00,VWS V14.00,2013-06-03 12:51:00,
2013-06-03 09:00:00,62.0,56.1,29.99,East,80,0.0,3.0,81,0.00,,BKN055,0.00,VWS V14.00,2013-06-03 13:00:00,
2013-06-03 09:01:00,62.0,56.1,29.99,East,80,0.0,3.0,81,0.00,,BKN055,0.00,VWS V14.00,2013-06-03 13:01:00,
2013-06-03 09:10:00,63.1,55.8,29.99,NNW,341,0.0,4.0,77,0.00,,BKN055,0.00,VWS V14.00,2013-06-03 13:10:00,
2013-06-03 09:11:00,63.1,55.8,29.99,NNW,341,0.0,4.0,77,0.00,,BKN055,0.00,VWS V14.00,2013-06-03 13:11:00,
2013-06-03 09:20:00,63.3,56.3,29.99,ENE,61,3.0,4.0,78,0.00,,BKN055,0.00,VWS V14.00,2013-06-03 13:20:00,
2013-06-03 09:21:00,63.3,56.3,29.99,ENE,61,3.0,4.0,78,0.00,,BKN055,0.00,VWS V14.00,2013-06-03 13:21:00,
2013-06-03 09:30:00,64.0,56.3,29.99,North,360,0.0,4.0,76,0.00,,BKN055,0.00,VWS V14.00,2013-06-03 13:30:00,
2013-06-03 09:31:00,64.0,56.3,29.99,North,360,0.0,4.0,76,0.00,,BKN055,0.00,VWS V14.00,2013-06-03 13:31:00,
2013-06-03 09:40:00,64.4,56.7,29.99,NE,44,0.0,5.0,76,0.00,,BKN055,0.00,VWS V14.00,2013-06-03 13:40:00,
2013-06-03 09:41:00,64.4,56.7,29.99,NE,44,0.0,5.0,76,0.00,,BKN055,0.00,VWS V14.00,2013-06-03 13:41:00,
2013-06-03 09:50:00,65.2,57.1,29.99,NNE,17,3.0,4.0,75,0.00,,BKN055,0.00,VWS V14.00,2013-06-03 13:50:00,
2013-06-03 09:51:00,65.2,57.1,29.99,NNE,17,3.0,4.0,75,0.00,,BKN055,0.00,VWS V14.00,2013-06-03 13:51:00,
2013-06-03 10:00:00,65.4,57.7,29.99,NNE,15,4.0,5.0,76,0.00,,BKN055,0.00,VWS V14.00,2013-06-03 14:00:00,
2013-06-03 10:01:00,65.4,57.7,29.99,NNE,15,4.0,5.0,76,0.00,,BKN055,0.00,VWS V14.00,2013-06-03 14:01:00,
2013-06-03 10:10:00,65.8,58.0,30.00,ENE,60,0.0,5.0,76,0.00,,BKN055,0.00,VWS V14.00,2013-06-03 14:10:00,
2013-06-03 10:11:00,65.8,58.0,30.00,ENE,60,0.0,5.0,76,0.00,,BKN055,0.00,VWS V14.00,2013-06-03 14:11:00,
2013-06-03 10:20:00,66.0,57.5,30.00,NW,323,0.0,6.0,74,0.00,,BKN055,0.00,VWS V14.00,2013-06-03 14:20:00,
2013-06-03 10:21:00,66.0,57.5,30.00,NW,323,0.0,6.0,74,0.00,,BKN055,0.00,VWS V14.00,2013-06-03 14:21:00,
2013-06-03 10:30:00,66.3,58.5,30.00,North,9,0.0,5.0,76,0.00,,BKN055,0.00,VWS V14.00,2013-06-03 14:30:00,
2013-06-03 10:31:00,66.3,58.5,30.00,North,9,0.0,5.0,76,0.00,,BKN055,0.00,VWS V14.00,2013-06-03 14:31:00,
2013-06-03 10:40:00,66.9,58.3,30.00,NNW,329,1.0,9.0,74,0.00,,BKN055,0.00,VWS V14.00,2013-06-03 14:40:00,
2013-06-03 10:41:00,66.9,58.3,30.00,NNW,329,1.0,9.0,74,0.00,,BKN055,0.00,VWS V14.00,2013-06-03 14:41:00,
2013-06-03 10:50:00,67.6,59.0,30.00,WSW,249,0.0,6.0,74,0.00,,BKN055,0.00,VWS V14.00,2013-06-03 14:50:00,
2013-06-03 10:51:00,67.6,59.0,30.00,WSW,249,0.0,6.0,74,0.00,,BKN055,0.00,VWS V14.00,2013-06-03 14:51:00,
2013-06-03 11:00:00,67.8,58.5,30.00,NNW,330,6.0,9.0,72,0.00,,BKN055,0.00,VWS V14.00,2013-06-03 15:00:00,
2013-06-03 11:01:00,67.8,58.5,30.00,NNW,330,6.0,9.0,72,0.00,,BKN055,0.00,VWS V14.00,2013-06-03 15:01:00,
2013-06-03 11:10:00,67.9,58.5,30.00,North,355,3.0,9.0,72,0.00,,BKN055,0.00,VWS V14.00,2013-06-03 15:10:00,
2013-06-03 11:11:00,67.9,58.5,30.00,North,355,3.0,9.0,72,0.00,,BKN055,0.00,VWS V14.00,2013-06-03 15:11:00,
2013-06-03 11:20:00,68.1,59.5,30.00,NE,55,2.0,10.0,74,0.00,,BKN055,0.00,VWS V14.00,2013-06-03 15:20:00,
2013-06-03 11:21:00,68.1,59.5,30.00,NE,55,2.0,10.0,74,0.00,,BKN055,0.00,VWS V14.00,2013-06-03 15:21:00,
2013-06-03 11:30:00,68.1,58.7,30.01,North,11,0.0,6.0,72,0.00,,BKN055,0.00,VWS V14.00,2013-06-03 15:30:00,
2013-06-03 11:31:00,68.1,58.7,30.01,North,11,0.0,6.0,72,0.00,,BKN055,0.00,VWS V14.00,2013-06-03 15:31:00,
2013-06-03 11:40:00,68.0,58.3,30.01,NW,309,5.0,9.0,71,0.00,,BKN055,0.00,VWS V14.00,2013-06-03 15:40:00,
2013-06-03 11:41:00,68.0,58.3,30.01,NW,309,5.0,9.0,71,0.00,,BKN055,0.00,VWS V14.00,2013-06-03 15:41:00,
2013-06-03 11:50:00,68.3,58.2,30.00,North,5,1.0,7.0,70,0.00,,BKN055,0.00,VWS V14.00,2013-06-03 15:50:00,
2013-06-03 11:51:00,68.3,58.2,30.00,North,5,1.0,7.0,70,0.00,,BKN055,0.00,VWS V14.00,2013-06-03 15:51:00,
2013-06-03 12:00:00,68.5,58.7,30.01,West,281,0.0,4.0,71,0.00,,BKN055,0.00,VWS V14.00,2013-06-03 16:00:00,
2013-06-03 12:01:00,68.5,58.7,30.01,West,281,0.0,4.0,71,0.00,,BKN055,0.00,VWS V14.00,2013-06-03 16:01:00,
2013-06-03 12:10:00,69.5,59.3,30.01,NW,315,5.0,11.0,70,0.00,,BKN055,0.00,VWS V14.00,2013-06-03 16:10:00,
2013-06-03 12:11:00,69.5,59.3,30.01,NW,315,5.0,11.0,70,0.00,,BKN055,0.00,VWS V14.00,2013-06-03 16:11:00,
2013-06-03 12:20:00,68.6,58.0,30.00,WSW,242,3.0,8.0,69,0.00,,BKN055,0.00,VWS V14.00,2013-06-03 16:20:00,
2013-06-03 12:21:00,68.6,58.0,30.00,WSW,242,3.0,8.0,69,0.00,,BKN055,0.00,VWS V14.00,2013-06-03 16:21:00,
2013-06-03 12:30:00,69.1,58.9,30.00,North,360,3.0,7.0,70,0.00,,BKN055,0.00,VWS V14.00,2013-06-03 16:30:00,
2013-06-03 12:31:00,69.1,58.9,30.00,North,360,3.0,7.0,70,0.00,,BKN055,0.00,VWS V14.00,2013-06-03 16:31:00,
2013-06-03 12:40:00,68.9,59.9,30.00,NNW,340,0.0,11.0,73,0.00,,BKN055,0.00,VWS V14.00,2013-06-03 16:40:00,
2013-06-03 12:41:00,68.9,59.9,30.00,NNW,340,0.0,11.0,73,0.00,,BKN055,0.00,VWS V14.00,2013-06-03 16:41:00,
2013-06-03 12:50:00,69.4,60.8,30.00,NNW,341,2.0,9.0,74,0.00,,BKN055,0.00,VWS V14.00,2013-06-03 16:50:00,
2013-06-03 12:51:00,69.4,60.8,30.00,NNW,341,2.0,9.0,74,0.00,,BKN055,0.00,VWS V14.00,2013-06-03 16:51:00,
2013-06-03 13:00:00,69.8,58.4,30.00,North,360,0.0,10.0,67,0.00,,BKN055,0.00,VWS V14.00,2013-06-03 17:00:00,
2013-06-03 13:01:00,69.8,58.4,30.00,North,360,0.0,10.0,67,0.00,,BKN055,0.00,VWS V14.00,2013-06-03 17:01:00,
2013-06-03 13:10:00,69.5,60.1,30.00,NNW,341,5.0,10.0,72,0.00,,BKN055,0.00,VWS V14.00,2013-06-03 17:10:00,
2013-06-03 13:11:00,69.5,60.1,30.00,NNW,341,5.0,10.0,72,0.00,,BKN055,0.00,VWS V14.00,2013-06-03 17:11:00,
2013-06-03 13:20:00,69.7,59.5,29.99,NW,325,5.0,10.0,70,0.00,,BKN055,0.00,VWS V14.00,2013-06-03 17:20:00,
2013-06-03 13:21:00,69.7,59.5,29.99,NW,325,5.0,10.0,70,0.00,,BKN055,0.00,VWS V14.00,2013-06-03 17:21:00,
2013-06-03 13:30:00,68.7,58.9,29.99,North,349,4.0,13.0,71,0.00,,BKN055,0.00,VWS V14.00,2013-06-03 17:30:00,
2013-06-03 13:31:00,68.7,58.9,29.99,North,349,4.0,13.0,71,0.00,,BKN055,0.00,VWS V14.00,2013-06-03 17:31:00,
2013-06-03 13:40:00,69.3,58.7,29.99,NW,315,3.0,12.0,69,0.00,,BKN055,0.00,VWS V14.00,2013-06-03 17:40:00,
2013-06-03 13:41:00,69.3,58.7,29.99,NW,315,3.0,12.0,69,0.00,,BKN055,0.00,VWS V14.00,2013-06-03 17:41:00,
2013-06-03 13:50:00,69.7,59.5,29.98,North,360,4.0,10.0,70,0.00,,BKN055,0.00,VWS V14.00,2013-06-03 17:50:00,
2013-06-03 13:51:00,69.7,59.5,29.98,North,360,4.0,10.0,70,0.00,,BKN055,0.00,VWS V14.00,2013-06-03 17:51:00,
2013-06-03 14:00:00,70.1,59.1,29.98,NNW,338,1.0,11.0,68,0.00,,BKN055,0.00,VWS V14.00,2013-06-03 18:00:00,
2013-06-03 14:01:00,70.1,59.1,29.98,NNW,338,1.0,11.0,68,0.00,,BKN055,0.00,VWS V14.00,2013-06-03 18:01:00,
2013-06-03 14:10:00,70.0,60.6,29.98,North,360,0.0,10.0,72,0.00,,BKN055,0.00,VWS V14.00,2013-06-03 18:10:00,
2013-06-03 14:11:00,70.0,60.6,29.98,North,360,0.0,10.0,72,0.00,,BKN055,0.00,VWS V14.00,2013-06-03 18:11:00,
2013-06-03 14:20:00,69.4,60.0,29.97,NNW,337,7.0,10.0,72,0.00,,BKN055,0.00,VWS V14.00,2013-06-03 18:20:00,
2013-06-03 14:21:00,69.4,60.0,29.97,NNW,337,7.0,10.0,72,0.00,,BKN055,0.00,VWS V14.00,2013-06-03 18:21:00,
2013-06-03 14:30:00,69.7,60.7,29.97,NW,309,0.0,10.0,73,0.00,,BKN055,0.00,VWS V14.00,2013-06-03 18:30:00,
2013-06-03 14:31:00,69.7,60.7,29.97,NW,309,0.0,10.0,73,0.00,,BKN055,0.00,VWS V14.00,2013-06-03 18:31:00,
2013-06-03 14:40:00,70.6,58.7,29.96,NW,314,4.0,9.0,66,0.00,,BKN055,0.00,VWS V14.00,2013-06-03 18:40:00,
2013-06-03 14:41:00,70.6,58.7,29.96,NW,314,4.0,9.0,66,0.00,,BKN055,0.00,VWS V14.00,2013-06-03 18:41:00,
2013-06-03 14:50:00,70.0,58.5,29.97,WNW,282,0.0,6.0,67,0.00,,BKN055,0.00,VWS V14.00,2013-06-03 18:50:00,
2013-06-03 14:51:00,70.0,58.5,29.97,WNW,282,0.0,6.0,67,0.00,,BKN055,0.00,VWS V14.00,2013-06-03 18:51:00,
2013-06-03 15:00:00,71.0,59.9,29.96,WNW,286,2.0,7.0,68,0.00,,BKN055,0.00,VWS V14.00,2013-06-03 19:00:00,
2013-06-03 15:01:00,71.0,59.9,29.96,WNW,286,2.0,7.0,68,0.00,,BKN055,0.00,VWS V14.00,2013-06-03 19:01:00,
2013-06-03 15:10:00,70.7,59.6,29.96,WNW,293,0.0,9.0,68,0.00,,BKN055,0.00,VWS V14.00,2013-06-03 19:10:00,
2013-06-03 15:11:00,70.7,59.6,29.96,WNW,293,0.0,9.0,68,0.00,,BKN055,0.00,VWS V14.00,2013-06-03 19:11:00,
2013-06-03 15:20:00,70.9,59.4,29.96,NW,318,0.0,10.0,67,0.00,,BKN055,0.00,VWS V14.00,2013-06-03 19:20:00,
2013-06-03 15:21:00,70.9,59.4,29.96,NW,318,0.0,10.0,67,0.00,,BKN055,0.00,VWS V14.00,2013-06-03 19:21:00,
2013-06-03 15:30:00,70.4,59.8,29.96,West,281,0.0,5.0,69,0.00,,BKN055,0.00,VWS V14.00,2013-06-03 19:30:00,
2013-06-03 15:31:00,70.4,59.8,29.96,West,281,0.0,5.0,69,0.00,,BKN055,0.00,VWS V14.00,2013-06-03 19:31:00,
2013-06-03 15:40:00,71.1,59.2,29.96,North,355,0.0,6.0,66,0.00,,BKN055,0.00,VWS V14.00,2013-06-03 19:40:00,
2013-06-03 15:41:00,71.1,59.2,29.96,North,355,0.0,6.0,66,0.00,,BKN055,0.00,VWS V14.00,2013-06-03 19:41:00,
2013-06-03 15:50:00,71.7,61.0,29.95,NNE,13,0.0,3.0,69,0.00,,BKN055,0.00,VWS V14.00,2013-06-03 19:50:00,
2013-06-03 15:51:00,71.7,61.0,29.95,NNE,13,0.0,3.0,69,0.00,,BKN055,0.00,VWS V14.00,2013-06-03 19:51:00,
2013-06-03 16:00:00,71.6,60.1,29.95,North,349,3.0,4.0,67,0.00,,BKN055,0.00,VWS V14.00,2013-06-03 20:00:00,
2013-06-03 16:01:00,71.6,60.1,29.95,North,349,3.0,4.0,67,0.00,,BKN055,0.00,VWS V14.00,2013-06-03 20:01:00,
2013-06-03 16:10:00,71.0,57.8,29.95,West,263,0.0,5.0,63,0.00,,BKN055,0.00,VWS V14.00,2013-06-03 20:10:00,
2013-06-03 16:11:00,71.0,57.8,29.95,West,263,0.0,5.0,63,0.00,,BKN055,0.00,VWS V14.00,2013-06-03 20:11:00,
2013-06-03 16:20:00,71.6,61.3,29.95,WNW,293,0.0,6.0,70,0.00,,BKN055,0.00,VWS V14.00,2013-06-03 20:20:00,
2013-06-03 16:21:00,71.6,61.3,29.95,WNW,293,0.0,6.0,70,0.00,,BKN055,0.00,VWS V14.00,2013-06-03 20:21:00,
2013-06-03 16:30:00,71.7,58.5,29.95,West,260,0.0,11.0,63,0.00,,BKN055,0.00,VWS V14.00,2013-06-03 20:30:00,
2013-06-03 16:31:00,71.7,58.5,29.95,West,260,0.0,11.0,63,0.00,,BKN055,0.00,VWS V14.00,2013-06-03 20:31:00,
2013-06-03 16:40:00,71.6,58.8,29.95,WNW,286,4.0,9.0,64,0.00,,BKN055,0.00,VWS V14.00,2013-06-03 20:40:00,
2013-06-03 16:41:00,71.6,58.8,29.95,WNW,286,4.0,9.0,64,0.00,,BKN055,0.00,VWS V14.00,2013-06-03 20:41:00,
2013-06-03 16:50:00,71.0,59.9,29.95,WNW,297,5.0,6.0,68,0.00,,BKN055,0.00,VWS V14.00,2013-06-03 20:50:00,
2013-06-03 16:51:00,71.0,59.9,29.95,WNW,297,5.0,6.0,68,0.00,,BKN055,0.00,VWS V14.00,2013-06-03 20:51:00,
2013-06-03 17:00:00,70.1,58.2,29.95,West,269,0.0,7.0,66,0.00,,BKN055,0.00,VWS V14.00,2013-06-03 21:00:00,
2013-06-03 17:01:00,70.1,58.2,29.95,West,269,0.0,7.0,66,0.00,,BKN055,0.00,VWS V14.00,2013-06-03 21:01:00,
2013-06-03 17:10:00,70.0,57.7,29.95,West,264,0.0,5.0,65,0.00,,BKN055,0.00,VWS V14.00,2013-06-03 21:10:00,
2013-06-03 17:11:00,70.0,57.7,29.95,West,264,0.0,5.0,65,0.00,,BKN055,0.00,VWS V14.00,2013-06-03 21:11:00,
2013-06-03 17:20:00,69.9,58.9,29.95,NE,38,0.0,4.0,68,0.00,,BKN055,0.00,VWS V14.00,2013-06-03 21:20:00,
2013-06-03 17:21:00,69.9,58.9,29.95,NE,38,0.0,4.0,68,0.00,,BKN055,0.00,VWS V14.00,2013-06-03 21:21:00,
2013-06-03 17:30:00,69.9,59.3,29.95,WNW,295,0.0,6.0,69,0.00,,BKN055,0.00,VWS V14.00,2013-06-03 21:30:00,
2013-06-03 17:31:00,69.9,59.3,29.95,WNW,295,0.0,6.0,69,0.00,,BKN055,0.00,VWS V14.00,2013-06-03 21:31:00,
2013-06-03 17:40:00,69.9,58.9,29.95,SE,131,0.0,6.0,68,0.00,,BKN055,0.00,VWS V14.00,2013-06-03 21:40:00,
2013-06-03 17:41:00,69.9,58.9,29.95,SE,131,0.0,6.0,68,0.00,,BKN055,0.00,VWS V14.00,2013-06-03 21:41:00,
2013-06-03 17:50:00,70.4,57.7,29.94,North,355,0.0,4.0,64,0.00,,BKN055,0.00,VWS V14.00,2013-06-03 21:50:00,
2013-06-03 17:51:00,70.4,57.7,29.94,North,355,0.0,4.0,64,0.00,,BKN055,0.00,VWS V14.00,2013-06-03 21:51:00,
2013-06-03 18:00:00,71.6,59.2,29.94,WSW,253,1.0,7.0,65,0.00,,BKN055,0.00,VWS V14.00,2013-06-03 22:00:00,
2013-06-03 18:01:00,71.6,59.2,29.94,WSW,253,1.0,7.0,65,0.00,,BKN055,0.00,VWS V14.00,2013-06-03 22:01:00,
2013-06-03 18:10:00,71.7,58.0,29.94,NW,313,0.0,5.0,62,0.00,,BKN055,0.00,VWS V14.00,2013-06-03 22:10:00,
2013-06-03 18:11:00,71.7,58.0,29.94,NW,313,0.0,5.0,62,0.00,,BKN055,0.00,VWS V14.00,2013-06-03 22:11:00,
2013-06-03 18:20:00,72.1,58.8,29.94,NNW,348,2.0,4.0,63,0.00,,BKN055,0.00,VWS V14.00,2013-06-03 22:20:00,
2013-06-03 18:21:00,72.1,58.8,29.94,NNW,348,2.0,4.0,63,0.00,,BKN055,0.00,VWS V14.00,2013-06-03 22:21:00,
2013-06-03 18:30:00,70.8,57.6,29.94,NNW,344,0.0,5.0,63,0.00,,BKN055,0.00,VWS V14.00,2013-06-03 22:30:00,
2013-06-03 18:31:00,70.8,57.6,29.94,NNW,344,0.0,5.0,63,0.00,,BKN055,0.00,VWS V14.00,2013-06-03 22:31:00,
2013-06-03 18:40:00,69.8,57.5,29.94,WSW,254,5.0,5.0,65,0.00,,BKN055,0.00,VWS V14.00,2013-06-03 22:40:00,
2013-06-03 18:41:00,69.8,57.5,29.94,WSW,254,5.0,5.0,65,0.00,,BKN055,0.00,VWS V14.00,2013-06-03 22:41:00,
2013-06-03 18:50:00,70.2,58.3,29.94,NNW,328,0.0,5.0,66,0.00,,BKN055,0.00,VWS V14.00,2013-06-03 22:50:00,
2013-06-03 18:51:00,70.2,58.3,29.94,NNW,328,0.0,5.0,66,0.00,,BKN055,0.00,VWS V14.00,2013-06-03 22:51:00,
2013-06-03 19:00:00,69.3,58.7,29.95,South,184,0.0,4.0,69,0.00,,BKN055,0.00,VWS V14.00,2013-06-03 23:00:00,
2013-06-03 19:01:00,69.3,58.7,29.95,South,184,0.0,4.0,69,0.00,,BKN055,0.00,VWS V14.00,2013-06-03 23:01:00,
2013-06-03 19:10:00,68.5,58.3,29.95,WSW,240,0.0,1.0,70,0.00,,BKN055,0.00,VWS V14.00,2013-06-03 23:10:00,
2013-06-03 19:11:00,68.5,58.3,29.95,WSW,240,0.0,1.0,70,0.00,,BKN055,0.00,VWS V14.00,2013-06-03 23:11:00,
2013-06-03 19:20:00,67.7,58.0,29.95,SSW,196,0.0,0.0,71,0.00,,BKN055,0.00,VWS V14.00,2013-06-03 23:20:00,
2013-06-03 19:21:00,67.7,58.0,29.95,SSW,196,0.0,0.0,71,0.00,,BKN055,0.00,VWS V14.00,2013-06-03 23:21:00,
2013-06-03 19:30:00,67.0,58.1,29.96,West,276,0.0,2.0,73,0.00,,BKN055,0.00,VWS V14.00,2013-06-03 23:30:00,
2013-06-03 19:31:00,67.0,58.1,29.96,West,276,0.0,2.0,73,0.00,,BKN055,0.00,VWS V14.00,2013-06-03 23:31:00,
2013-06-03 19:40:00,66.5,57.6,29.96,WNW,283,0.0,4.0,73,0.00,,BKN055,0.00,VWS V14.00,2013-06-03 23:40:00,
2013-06-03 19:41:00,66.5,57.6,29.96,WNW,283,0.0,4.0,73,0.00,,BKN055,0.00,VWS V14.00,2013-06-03 23:41:00,
2013-06-03 19:50:00,66.0,57.5,29.97,East,90,0.0,0.0,74,0.00,,BKN055,0.00,VWS V14.00,2013-06-03 23:50:00,
2013-06-03 19:51:00,66.0,57.5,29.97,East,90,0.0,0.0,74,0.00,,BKN055,0.00,VWS V14.00,2013-06-03 23:51:00,
2013-06-03 20:00:00,65.7,59.0,29.97,East,90,0.0,0.0,79,0.00,,BKN055,0.00,VWS V14.00,2013-06-04 00:00:00,
2013-06-03 20:01:00,65.7,59.0,29.97,East,90,0.0,0.0,79,0.00,,BKN055,0.00,VWS V14.00,2013-06-04 00:01:00,
2013-06-03 20:10:00,65.3,59.0,29.97,East,90,0.0,0.0,80,0.00,,BKN055,0.00,VWS V14.00,2013-06-04 00:10:00,
2013-06-03 20:11:00,65.3,59.0,29.97,East,90,0.0,0.0,80,0.00,,BKN055,0.00,VWS V14.00,2013-06-04 00:11:00,
2013-06-03 20:20:00,64.7,59.4,29.97,East,91,0.0,0.0,83,0.00,,BKN055,0.00,VWS V14.00,2013-06-04 00:20:00,
2013-06-03 20:21:00,64.7,59.4,29.97,East,91,0.0,0.0,83,0.00,,BKN055,0.00,VWS V14.00,2013-06-04 00:21:00,
2013-06-03 20:30:00,63.8,59.2,29.98,SE,128,0.0,1.0,85,0.00,,BKN055,0.00,VWS V14.00,2013-06-04 00:30:00,
2013-06-03 20:31:00,63.8,59.2,29.98,SE,128,0.0,1.0,85,0.00,,BKN055,0.00,VWS V14.00,2013-06-04 00:31:00,
2013-06-03 20:40:00,62.8,58.9,29.98,South,175,0.0,0.0,87,0.00,,BKN055,0.00,VWS V14.00,2013-06-04 00:40:00,
2013-06-03 20:41:00,62.8,58.9,29.98,South,175,0.0,0.0,87,0.00,,BKN055,0.00,VWS V14.00,2013-06-04 00:41:00,
2013-06-03 20:50:00,62.0,58.4,29.98,NW,306,0.0,0.0,88,0.00,,BKN055,0.00,VWS V14.00,2013-06-04 00:50:00,
2013-06-03 20:51:00,62.0,58.4,29.98,NW,306,0.0,0.0,88,0.00,,BKN055,0.00,VWS V14.00,2013-06-04 00:51:00,
2013-06-03 21:00:00,61.0,57.7,29.98,NW,306,0.0,0.0,89,0.00,,BKN055,0.00,VWS V14.00,2013-06-04 01:00:00,
2013-06-03 21:01:00,61.0,57.7,29.98,NW,306,0.0,0.0,89,0.00,,BKN055,0.00,VWS V14.00,2013-06-04 01:01:00,
2013-06-03 21:10:00,60.2,57.6,29.98,NW,306,0.0,1.0,91,0.00,,BKN055,0.00,VWS V14.00,2013-06-04 01:10:00,
2013-06-03 21:11:00,60.2,57.6,29.98,NW,306,0.0,1.0,91,0.00,,BKN055,0.00,VWS V14.00,2013-06-04 01:11:00,
2013-06-03 21:20:00,59.8,57.5,29.99,NW,306,0.0,0.0,92,0.00,,BKN055,0.00,VWS V14.00,2013-06-04 01:20:00,
2013-06-03 21:21:00,59.8,57.5,29.99,NW,306,0.0,0.0,92,0.00,,BKN055,0.00,VWS V14.00,2013-06-04 01:21:00,
2013-06-03 21:30:00,59.3,57.0,29.99,NW,306,0.0,0.0,92,0.00,,BKN055,0.00,VWS V14.00,2013-06-04 01:30:00,
2013-06-03 21:31:00,59.3,57.0,29.99,NW,306,0.0,0.0,92,0.00,,BKN055,0.00,VWS V14.00,2013-06-04 01:31:00,
2013-06-03 21:40:00,59.0,57.0,29.99,NW,308,2.0,3.0,93,0.00,,BKN055,0.00,VWS V14.00,2013-06-04 01:40:00,
2013-06-03 21:41:00,59.0,57.0,29.99,NW,308,2.0,3.0,93,0.00,,BKN055,0.00,VWS V14.00,2013-06-04 01:41:00,
2013-06-03 21:50:00,58.7,56.7,30.00,NW,314,0.0,2.0,93,0.00,,BKN055,0.00,VWS V14.00,2013-06-04 01:50:00,
2013-06-03 21:51:00,58.7,56.7,30.00,NW,314,0.0,2.0,93,0.00,,BKN055,0.00,VWS V14.00,2013-06-04 01:51:00,
2013-06-03 22:00:00,58.4,56.4,30.00,NW,315,0.0,1.0,93,0.00,,BKN055,0.00,VWS V14.00,2013-06-04 02:00:00,
2013-06-03 22:01:00,58.4,56.4,30.00,NW,315,0.0,1.0,93,0.00,,BKN055,0.00,VWS V14.00,2013-06-04 02:01:00,
2013-06-03 22:10:00,58.3,56.3,30.01,NW,314,0.0,1.0,93,0.00,,BKN055,0.00,VWS V14.00,2013-06-04 02:10:00,
2013-06-03 22:11:00,58.3,56.3,30.01,NW,314,0.0,1.0,93,0.00,,BKN055,0.00,VWS V14.00,2013-06-04 02:11:00,
2013-06-03 22:20:00,57.8,56.1,30.01,NW,315,0.0,1.0,94,0.00,,BKN055,0.00,VWS V14.00,2013-06-04 02:20:00,
2013-06-03 22:21:00,57.8,56.1,30.01,NW,315,0.0,1.0,94,0.00,,BKN055,0.00,VWS V14.00,2013-06-04 02:21:00,
2013-06-03 22:30:00,57.6,55.9,30.02,NW,315,0.0,0.0,94,0.00,,BKN055,0.00,VWS V14.00,2013-06-04 02:30:00,
2013-06-03 22:31:00,57.6,55.9,30.02,NW,315,0.0,0.0,94,0.00,,BKN055,0.00,VWS V14.00,2013-06-04 02:31:00,
2013-06-03 22:40:00,57.2,55.5,30.02,NW,315,1.0,1.0,94,0.00,,BKN055,0.00,VWS V14.00,2013-06-04 02:40:00,
2013-06-03 22:41:00,57.2,55.5,30.02,NW,315,1.0,1.0,94,0.00,,BKN055,0.00,VWS V14.00,2013-06-04 02:41:00,
2013-06-03 22:50:00,56.9,55.5,30.02,NW,315,0.0,1.0,95,0.00,,BKN055,0.00,VWS V14.00,2013-06-04 02:50:00,
2013-06-03 22:51:00,56.9,55.5,30.02,NW,315,0.0,1.0,95,0.00,,BKN055,0.00,VWS V14.00,2013-06-04 02:51:00,
2013-06-03 23:00:00,56.6,55.2,30.02,NW,315,0.0,2.0,95,0.00,,BKN055,0.00,VWS V14.00,2013-06-04 03:00:00,
2013-06-03 23:01:00,56.6,55.2,30.02,NW,315,0.0,2.0,95,0.00,,BKN055,0.00,VWS V14.00,2013-06-04 03:01:00,
2013-06-03 23:10:00,56.2,54.8,30.02,NW,316,0.0,1.0,95,0.00,,BKN055,0.00,VWS V14.00,2013-06-04 03:10:00,
2013-06-03 23:11:00,56.2,54.8,30.02,NW,316,0.0,1.0,95,0.00,,BKN055,0.00,VWS V14.00,2013-06-04 03:11:00,
2013-06-03 23:20:00,56.0,54.9,30.02,NW,315,0.0,0.0,96,0.00,,BKN055,0.00,VWS V14.00,2013-06-04 03:20:00,
2013-06-03 23:21:00,56.0,54.9,30.02,NW,315,0.0,0.0,96,0.00,,BKN055,0.00,VWS V14.00,2013-06-04 03:21:00,
2013-06-03 23:30:00,55.7,54.6,30.02,NW,320,0.0,2.0,96,0.00,,BKN055,0.00,VWS V14.00,2013-06-04 03:30:00,
2013-06-03 23:31:00,55.7,54.6,30.02,NW,320,0.0,2.0,96,0.00,,BKN055,0.00,VWS V14.00,2013-06-04 03:31:00,
2013-06-03 23:40:00,55.5,54.4,30.03,NW,325,1.0,2.0,96,0.00,,BKN055,0.00,VWS V14.00,2013-06-04 03:40:00,
2013-06-03 23:41:00,55.5,54.4,30.03,NW,325,1.0,2.0,96,0.00,,BKN055,0.00,VWS V14.00,2013-06-04 03:41:00,
2013-06-03 23:50:00,55.4,54.3,30.02,NNW,345,0.0,3.0,96,0.00,,BKN055,0.00,VWS V14.00,2013-06-04 03:50:00,
2013-06-03 23:51:00,55.4,54.3,30.02,NNW,345,0.0,3.0,96,0.00,,BKN055,0.00,VWS V14.00,2013-06-04 03:51:00,